KGNT/GNT METAR and TAF weather

Enter ICAO airport designator
Station Type Date Time Source
KGNT METAR 2018/12/19 03:15 UTC NOAA

KGNT 190315Z AUTO 36007KT 10SM CLR 01/M05 A3012 RMK AO2 T00071053


Station Type Date Time Source
KGNT Decoded METAR 2018/12/19 03:15 UTC NOAA

GRANTS-MILAN MUNICIPAL AIRPORT , NM, United States (KGNT) 35-10N 107-54W 1987M
Dec 18, 2018 - 10:15 PM EST / 2018.12.19 0315 UTC
Wind: from the N (360 degrees) at 8 MPH (7 KT):0
Visibility: 10 mile(s):0
Sky conditions: clear
Temperature: 33.3 F (0.7 C)
Windchill: 26 F (-3 C):1
Dew Point: 22.5 F (-5.3 C)
Relative Humidity: 64%
Pressure (altimeter): 30.12 in. Hg (1019 hPa)
ob: KGNT 190315Z AUTO 36007KT 10SM CLR 01/M05 A3012 RMK AO2 T00071053
cycle: 3

Station Type Date Time Source
KGNT TAF UTC NOAA

Error!


Example: see airport list